Kezdőlap
METAR-TAF:

METAR-TAF

Repülőterek :

Belgorod, Oroszország

földrajzi szélesség: 50-38-36N, földrajzi hosszúság: 036-35-24E, magasság: 224 m

Jelenlegi meteorológiai megfigyelések

A jelentés 22 perccel ezelõtt készült, 01:30 UTC
Észak-északnyugati szél 6 kt
Hőmérséklet 12°C
Páratartalom 54%
Légköri nyomás 1026 hPa
Látótávolság 10 km, vagy több
felhőtlen 1500 m magasságban, és nincs gomolyfelhõ

METAR: UUOB 250130Z 34003MPS CAVOK 12/03 Q1026 R29/010060 NOSIG

Idő: 04:52 (01:52 UTC)

Előrejelzés

A jelentés 2 órával és 52 perccel ezelõtt készült, 23:00 UTC
Az előrejelzés 25-én 00 óra UTC és 25-én 09 óra UTC között érvényes
Észak-északnyugati szél 6 kt
Látótávolság 10 km, vagy több
felhőtlen 1500 m magasságban, és nincs gomolyfelhõ

TAF: UUOB 242300Z 2500/2509 34003MPS CAVOK

Meteorológiai megfigyelések és előrejelzések több, mint 4000 repülőtéren (METAR és TAF jelentéseket).

A térképen piros és sárga pontok jelzik az elérhető meteorológiai állomásokat.

Mozgassa az egeret a pont fölött, hogy megjelenjen az állomás neve.

Azután kattintson az időjárási megfigyelések és előrejelzések megtekintéséhez.

A térkép megváltoztatása: kattintson a fekete keresztel jelölt zöld gombra ráközelítéshez, a vonallal jelölt zöld gombra távolításhoz, vagy a zöld nyilakra a szomszédos térképek eléréséhez.


METAR-TAF: